Time;durP1;ratioP1;P1;durP2;ratioP2;P2;SDS_P1;SDS_P2;PMS_P1;PMS_P2;Temp;Humidity;BMP_temperature;BMP_pressure;BME280_temperature;BME280_humidity;BME280_pressure;Samples;Min_cycle;Max_cycle;Signal;HPM_P1;HPM_P2
2022/08/17 00:01:24;;;;;;;3.05;2.85;;;24.20;62.20;;;;;;5095434;28;20215;-71
2022/08/17 00:03:51;;;;;;;3.10;2.90;;;24.10;62.10;;;;;;5111461;28;20172;-71
2022/08/17 00:06:26;;;;;;;2.92;2.72;;;24.10;62.10;;;;;;5095437;28;20179;-71
2022/08/17 00:08:57;;;;;;;2.88;2.67;;;24.20;62.20;;;;;;5108216;28;20291;-71
2022/08/17 00:11:37;;;;;;;3.00;2.80;;;24.10;62.10;;;;;;5075092;28;20617;-71
2022/08/17 00:14:11;;;;;;;2.72;2.50;;;24.10;62.10;;;;;;5074647;28;20198;-72
2022/08/17 00:16:48;;;;;;;3.17;2.97;;;24.10;62.10;;;;;;5093256;28;20543;-71
2022/08/17 00:19:22;;;;;;;2.75;2.55;;;24.10;62.00;;;;;;5092919;28;20201;-72
2022/08/17 00:21:52;;;;;;;2.80;2.60;;;24.20;62.10;;;;;;5074801;28;20224;-71
2022/08/17 00:24:18;;;;;;;3.00;2.80;;;24.20;62.10;;;;;;5057654;28;20215;-72
2022/08/17 00:26:46;;;;;;;2.95;2.75;;;24.20;62.10;;;;;;5057169;28;20173;-71
2022/08/17 00:29:12;;;;;;;2.67;2.58;;;24.10;62.00;;;;;;5074458;28;20688;-71
2022/08/17 00:31:38;;;;;;;3.00;2.70;;;24.20;62.10;;;;;;5109409;28;20206;-70
2022/08/17 00:34:07;;;;;;;3.20;3.00;;;24.10;62.00;;;;;;5111421;28;20192;-71
2022/08/17 00:36:33;;;;;;;3.17;2.97;;;24.10;61.90;;;;;;5111682;28;20191;-71
2022/08/17 00:38:59;;;;;;;2.90;2.70;;;24.10;62.00;;;;;;5094764;28;20258;-71
2022/08/17 00:41:28;;;;;;;3.00;2.80;;;24.10;62.00;;;;;;5094576;28;20702;-71
2022/08/17 00:43:58;;;;;;;3.00;2.80;;;24.10;61.90;;;;;;5112351;28;20176;-70
2022/08/17 00:46:35;;;;;;;2.90;2.70;;;24.10;62.00;;;;;;5094725;28;20192;-71
2022/08/17 00:49:01;;;;;;;2.85;2.67;;;24.10;62.00;;;;;;5094578;28;20627;-70
2022/08/17 00:51:51;;;;;;;3.10;2.90;;;24.10;62.00;;;;;;5094920;28;20184;-71
2022/08/17 00:54:25;;;;;;;2.80;2.60;;;24.10;62.00;;;;;;5094362;28;20184;-72
2022/08/17 00:57:03;;;;;;;2.63;2.42;;;24.10;61.90;;;;;;5094613;28;20211;-71
2022/08/17 00:59:37;;;;;;;2.80;2.63;;;24.10;61.90;;;;;;5094520;28;20256;-70
2022/08/17 01:02:06;;;;;;;2.85;2.65;;;24.10;61.90;;;;;;5092847;28;20698;-72
2022/08/17 01:04:33;;;;;;;3.13;2.92;;;24.10;61.90;;;;;;5111963;28;20249;-71
2022/08/17 01:07:01;;;;;;;3.20;2.90;;;24.10;61.80;;;;;;5077504;28;20279;-71
2022/08/17 01:09:27;;;;;;;2.97;2.78;;;24.10;61.90;;;;;;5112534;28;20239;-72
2022/08/17 01:11:53;;;;;;;2.95;2.75;;;24.10;61.90;;;;;;5094159;28;20188;-71
2022/08/17 01:14:21;;;;;;;2.35;2.25;;;24.10;61.70;;;;;;5076753;28;20195;-72
2022/08/17 01:16:50;;;;;;;3.00;2.80;;;24.10;61.90;;;;;;5094108;28;20195;-70
2022/08/17 01:19:21;;;;;;;2.90;2.70;;;24.10;61.90;;;;;;5110996;28;20228;-71
2022/08/17 01:21:57;;;;;;;3.00;2.80;;;24.10;61.90;;;;;;5110817;28;20341;-71
2022/08/17 01:24:23;;;;;;;2.95;2.75;;;24.10;61.90;;;;;;5076842;28;20262;-72
2022/08/17 01:26:49;;;;;;;2.97;2.65;;;24.10;61.80;;;;;;5093581;28;20618;-71
2022/08/17 01:29:15;;;;;;;2.65;2.50;;;24.10;61.70;;;;;;5077439;28;20204;-71
2022/08/17 01:31:55;;;;;;;3.13;2.92;;;24.10;61.80;;;;;;5094167;28;20197;-72
2022/08/17 01:34:21;;;;;;;2.80;2.60;;;24.10;61.80;;;;;;5111656;28;20191;-71
2022/08/17 01:36:48;;;;;;;3.10;2.80;;;24.10;61.70;;;;;;5094101;28;20195;-72
2022/08/17 01:39:33;;;;;;;2.95;2.70;;;24.10;61.70;;;;;;5093879;28;20245;-72
2022/08/17 01:42:17;;;;;;;3.25;3.00;;;24.10;61.70;;;;;;5112333;28;20223;-71
2022/08/17 01:44:43;;;;;;;2.83;2.63;;;24.10;61.70;;;;;;5093363;28;20216;-70
2022/08/17 01:47:09;;;;;;;2.80;2.60;;;24.10;61.80;;;;;;5093827;28;20253;-72
2022/08/17 01:49:34;;;;;;;2.70;2.50;;;24.10;61.80;;;;;;5112100;28;20204;-71
2022/08/17 01:52:08;;;;;;;2.90;2.70;;;24.10;61.80;;;;;;5093924;28;20257;-71
2022/08/17 01:54:38;;;;;;;2.80;2.60;;;24.10;61.80;;;;;;5093239;28;20188;-71
2022/08/17 01:57:04;;;;;;;3.13;2.78;;;24.10;61.70;;;;;;5093978;28;20185;-72
2022/08/17 01:59:30;;;;;;;3.20;3.00;;;24.10;61.70;;;;;;5093588;28;20208;-71
2022/08/17 02:01:56;;;;;;;2.92;2.65;;;24.10;61.70;;;;;;5092711;28;20222;-71
2022/08/17 02:04:22;;;;;;;2.95;2.75;;;24.10;61.80;;;;;;5093040;28;20564;-70
2022/08/17 02:06:48;;;;;;;3.08;2.50;;;24.10;61.70;;;;;;5111825;28;20184;-71
2022/08/17 02:09:14;;;;;;;2.92;2.72;;;24.10;61.70;;;;;;5111613;28;20291;-71
2022/08/17 02:11:40;;;;;;;2.53;2.38;;;24.10;61.70;;;;;;5098162;28;20187;-71
2022/08/17 02:14:09;;;;;;;3.78;3.13;;;24.10;61.70;;;;;;5102278;28;20647;-70
2022/08/17 02:16:39;;;;;;;3.05;2.80;;;24.10;61.70;;;;;;5127615;28;20192;-71
2022/08/17 02:19:11;;;;;;;3.10;2.90;;;24.10;61.80;;;;;;5112040;28;20257;-70
2022/08/17 02:21:39;;;;;;;2.92;2.72;;;24.10;61.70;;;;;;5111496;28;20215;-71
2022/08/17 02:24:09;;;;;;;2.70;2.50;;;24.10;61.60;;;;;;5097046;28;20259;-71
2022/08/17 02:26:36;;;;;;;2.70;2.50;;;24.10;61.70;;;;;;5095545;28;20313;-71
2022/08/17 02:29:02;;;;;;;2.60;2.40;;;24.10;61.70;;;;;;5093487;28;20576;-71
2022/08/17 02:31:29;;;;;;;2.80;2.60;;;24.10;61.70;;;;;;5121842;27;20184;-71
2022/08/17 02:33:56;;;;;;;2.85;2.70;;;24.10;61.60;;;;;;5096571;28;20274;-71
2022/08/17 02:36:22;;;;;;;2.75;2.55;;;24.10;61.70;;;;;;5097200;28;20188;-71
2022/08/17 02:38:49;;;;;;;3.05;2.85;;;24.10;61.70;;;;;;5097165;28;20200;-72
2022/08/17 02:41:15;;;;;;;2.88;2.67;;;24.10;61.70;;;;;;5097095;28;20212;-71
2022/08/17 02:43:41;;;;;;;2.50;2.30;;;24.10;61.60;;;;;;5113372;28;20530;-71
2022/08/17 02:46:07;;;;;;;2.70;2.50;;;24.10;61.60;;;;;;5115091;28;20173;-71
2022/08/17 02:48:33;;;;;;;2.95;2.75;;;24.10;61.60;;;;;;5096843;28;20564;-71
2022/08/17 02:50:59;;;;;;;2.83;2.63;;;24.10;61.60;;;;;;5079861;28;20180;-71
2022/08/17 02:53:26;;;;;;;2.50;2.40;;;24.10;61.60;;;;;;5079832;28;20191;-71
2022/08/17 02:55:52;;;;;;;2.60;2.40;;;24.10;61.60;;;;;;5096251;28;20267;-71
2022/08/17 02:58:19;;;;;;;2.90;2.60;;;24.10;61.60;;;;;;5096727;28;20231;-71
2022/08/17 03:00:47;;;;;;;2.88;2.70;;;24.10;61.70;;;;;;5096837;28;20254;-71
2022/08/17 03:03:18;;;;;;;2.72;2.53;;;24.10;61.60;;;;;;5079779;28;20188;-71
2022/08/17 03:05:52;;;;;;;2.90;2.70;;;24.10;61.60;;;;;;5114316;28;20187;-71
2022/08/17 03:08:18;;;;;;;2.95;2.67;;;24.00;61.60;;;;;;5079478;28;20215;-71
2022/08/17 03:10:45;;;;;;;2.92;2.72;;;24.10;61.70;;;;;;5113421;28;20180;-71
2022/08/17 03:13:13;;;;;;;3.10;2.90;;;24.00;61.60;;;;;;5114649;28;20211;-71
2022/08/17 03:15:43;;;;;;;2.70;2.50;;;24.00;61.60;;;;;;5112830;28;20184;-71
2022/08/17 03:18:11;;;;;;;2.90;2.70;;;24.00;61.60;;;;;;5113370;28;20200;-71
2022/08/17 03:20:38;;;;;;;3.40;3.10;;;24.10;61.70;;;;;;5078719;28;20806;-71
2022/08/17 03:23:04;;;;;;;2.85;2.65;;;24.00;61.70;;;;;;5113291;28;20274;-71
2022/08/17 03:25:36;;;;;;;2.80;2.63;;;24.10;61.70;;;;;;5078745;28;20267;-72
2022/08/17 03:28:03;;;;;;;2.70;2.50;;;24.10;61.70;;;;;;5096223;28;20196;-71
2022/08/17 03:30:29;;;;;;;2.90;2.70;;;24.00;61.60;;;;;;5095610;28;20184;-71
2022/08/17 03:32:58;;;;;;;2.67;2.45;;;24.10;61.70;;;;;;5096003;28;20188;-71
2022/08/17 03:35:30;;;;;;;2.65;2.45;;;24.10;61.80;;;;;;5095467;28;20223;-71
2022/08/17 03:37:57;;;;;;;2.80;2.60;;;24.10;61.80;;;;;;5079102;28;20204;-71
2022/08/17 03:40:23;;;;;;;2.90;2.70;;;24.00;61.60;;;;;;5113015;28;20683;-71
2022/08/17 03:42:53;;;;;;;2.95;2.75;;;24.00;61.70;;;;;;5113741;28;20176;-71
2022/08/17 03:56:43;;;;;;;2.63;2.42;;;24.00;61.70;;;;;;5109365;28;20236;-71
2022/08/17 03:59:20;;;;;;;2.08;1.98;;;24.00;61.70;;;;;;5095395;28;20707;-71
2022/08/17 04:01:51;;;;;;;2.58;2.38;;;24.10;61.80;;;;;;5095552;28;20199;-71
2022/08/17 04:04:19;;;;;;;2.90;2.70;;;24.00;61.80;;;;;;5113020;28;20258;-71
2022/08/17 04:06:46;;;;;;;2.30;2.20;;;24.10;61.90;;;;;;5095292;28;20182;-71
2022/08/17 04:09:12;;;;;;;2.90;2.70;;;24.00;61.80;;;;;;5078502;28;20219;-71
2022/08/17 04:11:39;;;;;;;2.88;2.67;;;24.00;61.80;;;;;;5095419;28;20188;-71
2022/08/17 04:14:06;;;;;;;2.83;2.63;;;24.00;61.80;;;;;;5112947;28;20190;-71
2022/08/17 04:16:34;;;;;;;2.90;2.70;;;24.00;61.80;;;;;;5095464;28;20188;-71
2022/08/17 04:19:02;;;;;;;2.45;2.30;;;24.00;61.80;;;;;;5095160;28;20208;-71
2022/08/17 04:21:28;;;;;;;3.80;2.90;;;24.00;61.80;;;;;;5094695;28;20215;-71
2022/08/17 04:23:54;;;;;;;2.85;2.65;;;24.00;61.90;;;;;;5077274;28;20229;-71
2022/08/17 04:26:21;;;;;;;3.00;2.72;;;24.00;61.90;;;;;;5111986;28;20176;-71
2022/08/17 04:28:47;;;;;;;3.00;2.80;;;24.00;61.80;;;;;;5094998;28;20196;-71
2022/08/17 04:31:14;;;;;;;3.20;3.00;;;24.00;61.90;;;;;;5095014;28;20199;-71
2022/08/17 04:33:43;;;;;;;3.05;2.85;;;24.00;62.00;;;;;;5111961;28;20184;-71
2022/08/17 04:36:13;;;;;;;3.40;3.20;;;24.00;61.90;;;;;;5094552;28;20184;-70
2022/08/17 04:38:43;;;;;;;3.03;2.83;;;24.00;61.90;;;;;;5107496;27;20216;-71
2022/08/17 04:43:57;;;;;;;3.28;3.08;;;24.00;61.90;;;;;;5112375;28;20249;-71
2022/08/17 04:46:33;;;;;;;3.60;3.30;;;24.00;61.90;;;;;;5112746;28;20215;-71
2022/08/17 04:49:04;;;;;;;3.50;3.25;;;24.00;61.90;;;;;;5111879;28;20282;-71
2022/08/17 04:51:38;;;;;;;3.00;2.80;;;24.00;61.90;;;;;;5094645;28;20180;-71
2022/08/17 04:54:12;;;;;;;3.15;2.85;;;24.00;61.90;;;;;;5076656;28;20236;-71
2022/08/17 04:56:39;;;;;;;3.35;3.05;;;24.00;61.90;;;;;;5093934;28;20275;-71
2022/08/17 04:59:15;;;;;;;3.00;2.80;;;24.00;61.90;;;;;;5077649;28;20255;-71
2022/08/17 05:01:44;;;;;;;3.20;2.97;;;24.00;61.90;;;;;;5077680;28;20294;-71
2022/08/17 05:04:18;;;;;;;2.97;2.78;;;24.00;61.90;;;;;;5076900;28;20196;-71
2022/08/17 05:06:45;;;;;;;3.47;3.17;;;24.00;61.90;;;;;;5112505;28;20183;-71
2022/08/17 05:09:12;;;;;;;2.90;2.70;;;24.00;61.90;;;;;;5112324;28;20211;-71
2022/08/17 05:11:38;;;;;;;3.20;3.00;;;24.00;61.90;;;;;;5105580;28;20181;-71
2022/08/17 05:14:04;;;;;;;3.03;2.83;;;24.00;61.90;;;;;;5094248;28;20183;-71
2022/08/17 05:16:30;;;;;;;3.25;3.05;;;24.00;62.00;;;;;;5068813;28;20745;-71
2022/08/17 05:18:58;;;;;;;3.30;3.10;;;24.00;61.90;;;;;;5112025;28;20218;-71
2022/08/17 05:21:25;;;;;;;3.33;3.13;;;24.00;62.00;;;;;;5094052;28;20598;-71
2022/08/17 05:23:52;;;;;;;3.00;2.78;;;24.00;61.90;;;;;;5094175;28;20279;-71
2022/08/17 05:26:20;;;;;;;3.45;3.17;;;24.00;61.90;;;;;;5111263;28;20183;-71
2022/08/17 05:28:47;;;;;;;2.97;2.78;;;24.00;61.90;;;;;;5094102;28;20200;-71
2022/08/17 05:31:13;;;;;;;3.65;3.00;;;24.00;61.90;;;;;;5077308;28;20286;-71
2022/08/17 05:33:41;;;;;;;3.15;2.95;;;24.00;62.00;;;;;;5110982;28;20286;-71
2022/08/17 05:36:11;;;;;;;2.83;2.63;;;24.00;62.00;;;;;;5111637;28;20188;-71
2022/08/17 05:38:37;;;;;;;3.10;2.90;;;23.90;61.90;;;;;;5112167;28;20218;-71
2022/08/17 05:41:07;;;;;;;3.13;2.92;;;24.00;62.00;;;;;;5094130;28;20683;-70
2022/08/17 05:43:37;;;;;;;3.10;2.90;;;23.90;62.00;;;;;;5112145;28;20180;-71
2022/08/17 05:46:35;;;;;;;3.17;2.97;;;24.00;62.00;;;;;;5093440;28;20176;-71
2022/08/17 05:49:06;;;;;;;2.90;2.70;;;23.90;61.90;;;;;;5091640;28;20212;-71
2022/08/17 05:52:40;;;;;;;3.17;2.90;;;23.90;62.00;;;;;;5091890;28;20194;-71
2022/08/17 05:55:36;;;;;;;3.10;2.90;;;23.90;62.00;;;;;;5020903;28;20278;-71
2022/08/17 05:58:31;;;;;;;3.10;2.90;;;24.00;62.00;;;;;;5023162;28;20226;-71
2022/08/17 06:01:31;;;;;;;3.20;2.90;;;23.90;62.00;;;;;;5100766;28;20287;-71
2022/08/17 06:04:54;;;;;;;2.95;2.75;;;23.90;62.00;;;;;;5111383;28;20551;-71
2022/08/17 06:07:42;;;;;;;3.10;2.80;;;24.00;62.20;;;;;;5079882;28;20226;-71
2022/08/17 06:10:49;;;;;;;3.30;3.10;;;24.00;62.30;;;;;;5080904;28;20180;-70
2022/08/17 06:13:55;;;;;;;3.00;2.80;;;24.00;62.30;;;;;;5069087;28;20192;-71
2022/08/17 06:16:37;;;;;;;3.05;2.85;;;24.00;63.10;;;;;;5097252;28;20190;-71
2022/08/17 06:19:20;;;;;;;3.00;2.80;;;24.00;62.30;;;;;;5115764;28;20204;-72
2022/08/17 06:21:52;;;;;;;3.35;3.05;;;23.90;62.20;;;;;;5097403;28;20211;-71
2022/08/17 06:24:29;;;;;;;3.33;2.92;;;23.90;62.20;;;;;;5115218;28;20207;-71
2022/08/17 06:27:37;;;;;;;3.10;2.90;;;24.00;62.30;;;;;;5115497;28;20643;-71
2022/08/17 06:30:11;;;;;;;3.17;2.97;;;24.00;62.20;;;;;;5115460;28;20194;-71
2022/08/17 06:32:41;;;;;;;3.17;2.97;;;24.00;62.20;;;;;;5096983;28;20274;-71
2022/08/17 06:35:24;;;;;;;3.25;3.05;;;24.00;62.30;;;;;;5096744;28;20215;-71
2022/08/17 06:38:09;;;;;;;2.88;2.67;;;23.90;62.10;;;;;;5097234;28;20208;-71
2022/08/17 06:40:58;;;;;;;3.30;3.05;;;23.90;62.20;;;;;;5080051;28;20214;-71
2022/08/17 06:43:55;;;;;;;3.00;2.80;;;23.90;62.20;;;;;;5097072;28;20188;-71
2022/08/17 06:46:35;;;;;;;3.20;3.00;;;23.90;62.20;;;;;;5096513;28;20245;-71
2022/08/17 06:49:06;;;;;;;2.72;2.53;;;23.90;62.20;;;;;;5096969;28;20253;-71
2022/08/17 06:52:16;;;;;;;2.88;2.58;;;24.00;62.30;;;;;;5097045;28;20237;-71
2022/08/17 06:54:54;;;;;;;2.65;2.53;;;24.00;62.50;;;;;;5110879;28;20257;-71
2022/08/17 06:57:28;;;;;;;2.90;2.70;;;23.90;62.30;;;;;;5113720;28;20290;-71
2022/08/17 07:00:09;;;;;;;2.90;2.70;;;23.90;62.20;;;;;;5079859;28;20187;-71
2022/08/17 07:03:01;;;;;;;3.03;2.83;;;24.00;62.40;;;;;;5113134;28;20222;-70
2022/08/17 07:05:36;;;;;;;2.97;2.78;;;23.90;62.20;;;;;;5079278;28;20188;-71
2022/08/17 07:08:15;;;;;;;3.05;2.85;;;23.90;62.40;;;;;;5114777;28;20678;-71
2022/08/17 07:10:55;;;;;;;2.88;2.63;;;24.00;62.40;;;;;;5113536;28;20264;-71
2022/08/17 07:13:30;;;;;;;2.80;2.60;;;23.90;62.20;;;;;;5096382;28;20184;-71
2022/08/17 07:16:14;;;;;;;2.92;2.72;;;24.00;62.40;;;;;;5113454;28;20184;-71
2022/08/17 07:18:42;;;;;;;3.10;2.80;;;23.90;62.30;;;;;;5112692;28;20577;-71
2022/08/17 07:21:39;;;;;;;3.20;3.00;;;23.90;62.30;;;;;;5096214;28;20199;-71
2022/08/17 07:24:29;;;;;;;3.03;2.83;;;23.90;62.30;;;;;;5078990;28;20233;-71
2022/08/17 07:27:22;;;;;;;2.85;2.65;;;24.00;62.40;;;;;;5114431;28;20184;-71
2022/08/17 07:30:02;;;;;;;2.90;2.70;;;23.90;62.30;;;;;;5079670;28;20184;-71
2022/08/17 07:32:58;;;;;;;2.92;2.72;;;23.90;62.40;;;;;;5114588;28;20179;-71
2022/08/17 07:35:38;;;;;;;2.83;2.63;;;23.90;62.40;;;;;;5095568;28;20241;-71
2022/08/17 07:38:16;;;;;;;3.03;2.83;;;23.90;62.40;;;;;;5096050;28;20212;-71
2022/08/17 07:40:56;;;;;;;2.97;2.78;;;23.90;62.40;;;;;;5113013;28;20266;-71
2022/08/17 07:43:44;;;;;;;3.30;3.00;;;23.90;62.50;;;;;;5114145;28;20195;-72
2022/08/17 07:48:59;;;;;;;3.00;2.80;;;23.90;62.40;;;;;;5109362;28;20302;-71
2022/08/17 07:51:35;;;;;;;3.22;2.92;;;24.00;62.60;;;;;;5095630;28;20188;-71
2022/08/17 07:54:22;;;;;;;3.00;2.80;;;23.90;62.50;;;;;;5114204;28;20188;-71
2022/08/17 07:56:54;;;;;;;2.70;2.55;;;23.90;62.70;;;;;;5113965;28;20180;-72
2022/08/17 07:59:30;;;;;;;2.88;2.67;;;24.00;62.60;;;;;;5078668;28;20238;-71
2022/08/17 08:01:56;;;;;;;2.60;2.50;;;24.00;62.60;;;;;;5095169;28;20226;-71
2022/08/17 08:04:42;;;;;;;2.92;2.72;;;24.00;62.60;;;;;;5095041;28;20595;-71
2022/08/17 08:07:34;;;;;;;3.08;2.88;;;24.00;62.40;;;;;;5095305;28;20184;-71
2022/08/17 08:10:27;;;;;;;2.85;2.65;;;24.10;62.40;;;;;;5078346;28;20332;-71
2022/08/17 08:13:07;;;;;;;3.00;2.80;;;24.10;62.30;;;;;;5095363;28;20239;-71
2022/08/17 08:15:42;;;;;;;2.83;2.63;;;24.10;62.20;;;;;;5094781;28;20213;-71
2022/08/17 08:18:39;;;;;;;2.78;2.58;;;24.10;62.20;;;;;;5113300;28;20191;-71
2022/08/17 08:21:33;;;;;;;2.83;2.63;;;24.10;62.30;;;;;;5113414;28;20184;-72
2022/08/17 08:24:38;;;;;;;2.90;2.70;;;24.10;62.20;;;;;;5095060;28;20281;-71
2022/08/17 08:27:19;;;;;;;2.50;2.40;;;24.10;62.20;;;;;;5095386;28;20220;-71
2022/08/17 08:30:10;;;;;;;2.67;2.50;;;24.20;62.30;;;;;;5094120;28;20184;-71
2022/08/17 08:33:11;;;;;;;3.05;2.85;;;24.20;62.40;;;;;;5095027;28;20180;-71
2022/08/17 08:35:37;;;;;;;2.97;2.65;;;24.20;62.30;;;;;;5092723;28;20185;-71
2022/08/17 08:38:26;;;;;;;2.60;2.45;;;24.20;62.20;;;;;;5111789;28;20204;-71
2022/08/17 08:41:09;;;;;;;2.90;2.70;;;24.20;62.30;;;;;;5094803;28;20216;-71
2022/08/17 08:44:08;;;;;;;2.80;2.60;;;24.20;62.20;;;;;;5094824;28;20187;-71
2022/08/17 08:47:04;;;;;;;2.88;2.67;;;24.20;62.30;;;;;;5111213;28;20180;-70
2022/08/17 08:49:54;;;;;;;2.90;2.70;;;24.20;62.30;;;;;;5094681;28;20206;-71
2022/08/17 08:52:41;;;;;;;2.88;2.67;;;24.20;62.30;;;;;;5112945;28;20445;-71
2022/08/17 08:55:17;;;;;;;3.03;2.83;;;24.20;62.30;;;;;;5104221;28;20192;-71
2022/08/17 08:57:54;;;;;;;2.60;2.50;;;24.20;62.50;;;;;;5102890;28;20615;-71
2022/08/17 09:00:25;;;;;;;3.13;2.80;;;24.20;62.40;;;;;;5077356;28;20183;-71
2022/08/17 09:03:06;;;;;;;2.78;2.58;;;24.20;62.50;;;;;;5078367;28;20293;-71
2022/08/17 09:06:00;;;;;;;2.47;2.38;;;24.20;62.30;;;;;;5109158;28;20183;-71
2022/08/17 09:08:44;;;;;;;2.75;2.58;;;24.20;62.30;;;;;;5076947;28;20216;-71
2022/08/17 09:11:39;;;;;;;3.20;3.00;;;24.20;62.30;;;;;;5094401;28;20179;-71
2022/08/17 09:14:46;;;;;;;3.03;2.83;;;24.20;62.30;;;;;;5097972;28;20198;-70
2022/08/17 09:17:30;;;;;;;2.67;2.50;;;24.20;62.40;;;;;;5093654;28;20200;-71
2022/08/17 09:20:13;;;;;;;2.88;2.67;;;24.20;62.40;;;;;;5094258;28;20176;-70
2022/08/17 09:22:59;;;;;;;3.17;2.88;;;24.20;62.30;;;;;;5094240;28;20260;-70
2022/08/17 09:25:31;;;;;;;3.13;2.90;;;24.20;62.30;;;;;;5110786;28;20188;-71
2022/08/17 09:28:15;;;;;;;3.08;2.88;;;24.20;62.40;;;;;;5111257;28;20565;-70
2022/08/17 09:30:50;;;;;;;2.80;2.60;;;24.20;62.40;;;;;;5112318;28;20209;-70
2022/08/17 09:33:27;;;;;;;2.30;2.20;;;24.20;62.50;;;;;;5094200;28;20232;-70
2022/08/17 09:36:00;;;;;;;2.80;2.60;;;24.20;62.40;;;;;;5093759;28;20184;-71
2022/08/17 09:38:59;;;;;;;2.88;2.67;;;24.20;62.40;;;;;;5111198;28;20291;-71
2022/08/17 09:41:53;;;;;;;3.35;2.85;;;24.20;62.40;;;;;;5067218;28;20577;-71
2022/08/17 09:44:50;;;;;;;3.30;3.00;;;24.20;62.50;;;;;;5114587;28;20593;-71
2022/08/17 09:47:25;;;;;;;3.05;2.85;;;24.20;62.50;;;;;;5115147;28;20184;-71
2022/08/17 09:50:07;;;;;;;2.70;2.50;;;24.20;63.20;;;;;;5114453;28;20179;-71
2022/08/17 09:52:34;;;;;;;2.67;2.47;;;24.20;62.40;;;;;;5096218;28;20191;-71
2022/08/17 09:55:00;;;;;;;2.70;2.58;;;24.20;62.50;;;;;;5077106;28;20181;-71
2022/08/17 09:58:07;;;;;;;2.88;2.67;;;24.20;62.50;;;;;;5095628;28;20291;-71
2022/08/17 10:00:39;;;;;;;2.92;2.72;;;24.20;62.50;;;;;;5094462;28;20257;-71
2022/08/17 10:03:27;;;;;;;2.80;2.58;;;24.20;62.50;;;;;;5114775;28;20263;-71
2022/08/17 10:06:16;;;;;;;2.42;2.22;;;24.20;62.50;;;;;;5079264;28;20192;-71
2022/08/17 10:09:13;;;;;;;2.88;2.67;;;24.20;62.50;;;;;;5115906;28;20214;-71
2022/08/17 10:15:17;;;;;;;3.20;2.80;;;24.30;62.50;;;;;;5097093;28;20192;-71
2022/08/17 10:17:58;;;;;;;2.40;2.30;;;24.20;62.40;;;;;;5097364;28;20199;-71
2022/08/17 10:20:43;;;;;;;2.70;2.60;;;24.30;62.50;;;;;;5080489;28;20255;-71
2022/08/17 10:26:17;;;;;;;2.72;2.58;;;24.30;62.40;;;;;;5115223;28;20229;-71
2022/08/17 10:29:05;;;;;;;3.13;2.92;;;24.30;62.40;;;;;;5097393;28;20203;-71
2022/08/17 10:32:00;;;;;;;3.42;3.15;;;24.30;62.40;;;;;;5115691;28;20168;-71
2022/08/17 10:35:24;;;;;;;2.45;2.33;;;24.30;62.40;;;;;;5096878;28;20188;-71
2022/08/17 10:38:35;;;;;;;2.47;2.38;;;24.30;62.40;;;;;;5096314;28;20219;-72
2022/08/17 10:41:24;;;;;;;2.80;2.60;;;24.30;62.50;;;;;;5097248;28;20310;-70
2022/08/17 10:44:12;;;;;;;2.75;2.55;;;24.30;62.40;;;;;;5115015;28;20191;-70
2022/08/17 10:46:52;;;;;;;2.58;2.47;;;24.30;62.50;;;;;;5114685;28;20181;-71
2022/08/17 10:49:19;;;;;;;3.17;2.90;;;24.30;62.50;;;;;;5115133;28;20200;-71
2022/08/17 10:52:16;;;;;;;2.50;2.40;;;24.30;62.50;;;;;;5096778;28;20273;-71
2022/08/17 10:54:47;;;;;;;2.55;2.45;;;24.30;62.50;;;;;;5096120;28;20184;-71
2022/08/17 10:57:28;;;;;;;2.70;2.50;;;24.30;62.50;;;;;;5113823;28;20564;-71
2022/08/17 11:00:14;;;;;;;2.88;2.67;;;24.30;62.60;;;;;;5079997;28;20184;-71
2022/08/17 11:02:48;;;;;;;2.75;2.50;;;24.30;62.50;;;;;;5096863;28;20192;-71
2022/08/17 11:06:01;;;;;;;2.60;2.50;;;24.30;62.50;;;;;;5112970;28;20187;-71
2022/08/17 11:09:21;;;;;;;2.50;2.40;;;24.30;62.50;;;;;;5085610;28;20389;-71
2022/08/17 11:12:25;;;;;;;2.92;2.60;;;24.30;62.60;;;;;;5079210;28;20184;-71
2022/08/17 11:15:07;;;;;;;2.65;2.45;;;24.30;62.50;;;;;;5096117;28;20669;-71
2022/08/17 11:17:51;;;;;;;2.40;2.20;;;24.30;63.40;;;;;;5113686;28;20686;-71
2022/08/17 11:21:07;;;;;;;2.70;2.50;;;24.30;62.60;;;;;;5114537;28;20184;-71
2022/08/17 11:24:06;;;;;;;2.63;2.53;;;24.30;62.60;;;;;;5096391;28;20175;-70
2022/08/17 11:26:36;;;;;;;2.60;2.40;;;24.30;62.50;;;;;;5112557;28;20184;-72
2022/08/17 11:29:19;;;;;;;2.72;2.53;;;24.30;62.50;;;;;;5096357;28;20269;-71
2022/08/17 11:32:11;;;;;;;2.47;2.38;;;24.30;62.60;;;;;;5096191;28;20188;-71
2022/08/17 11:34:42;;;;;;;2.47;2.35;;;24.30;62.50;;;;;;5095661;28;20647;-71
2022/08/17 11:37:24;;;;;;;2.83;2.63;;;24.40;62.70;;;;;;5096098;28;20192;-70
2022/08/17 11:40:12;;;;;;;2.95;2.75;;;24.30;62.60;;;;;;5114404;28;20188;-71
2022/08/17 11:43:22;;;;;;;2.83;2.63;;;24.40;62.80;;;;;;5112000;28;20195;-71
2022/08/17 11:46:09;;;;;;;2.30;2.20;;;24.40;63.60;;;;;;5058379;28;20192;-70
2022/08/17 11:52:00;;;;;;;2.47;2.38;;;24.30;62.60;;;;;;5093562;28;20265;-71
2022/08/17 11:54:46;;;;;;;2.60;2.45;;;24.30;62.70;;;;;;5075516;28;20181;-71
2022/08/17 11:57:28;;;;;;;2.63;2.53;;;24.40;62.80;;;;;;5075276;28;20648;-71
2022/08/17 12:00:06;;;;;;;2.90;2.70;;;24.30;62.60;;;;;;5075404;28;20640;-71
2022/08/17 12:02:41;;;;;;;2.47;2.38;;;24.40;62.70;;;;;;5075401;28;20724;-70
2022/08/17 12:05:16;;;;;;;2.33;2.22;;;24.40;62.70;;;;;;5091533;28;20180;-70
2022/08/17 12:07:59;;;;;;;2.30;2.20;;;24.40;62.60;;;;;;5075081;28;20222;-71
2022/08/17 12:10:33;;;;;;;2.85;2.65;;;24.40;62.70;;;;;;5075086;28;20185;-71
2022/08/17 12:13:09;;;;;;;2.85;2.65;;;24.40;62.60;;;;;;5074542;28;20212;-70
2022/08/17 12:15:49;;;;;;;2.60;2.47;;;24.40;62.60;;;;;;5091414;28;20189;-72
2022/08/17 12:18:26;;;;;;;2.35;2.25;;;24.40;62.70;;;;;;5075062;28;20196;-71
2022/08/17 12:21:21;;;;;;;2.45;2.35;;;24.40;62.70;;;;;;5075012;28;20212;-71
2022/08/17 12:24:08;;;;;;;2.75;2.55;;;24.40;62.70;;;;;;5093103;28;20185;-71
2022/08/17 12:26:35;;;;;;;2.90;2.70;;;24.40;62.70;;;;;;5074264;28;20266;-71
2022/08/17 12:29:13;;;;;;;2.58;2.45;;;24.40;63.00;;;;;;5091578;28;20250;-71
2022/08/17 12:31:50;;;;;;;2.40;2.30;;;24.40;62.70;;;;;;5074756;28;20192;-71
2022/08/17 12:34:34;;;;;;;3.00;2.80;;;24.40;62.60;;;;;;5074831;28;20237;-71
2022/08/17 12:37:11;;;;;;;2.30;2.20;;;24.40;62.70;;;;;;5091735;28;20187;-71
2022/08/17 12:39:47;;;;;;;2.58;2.47;;;24.40;62.60;;;;;;5074549;28;20184;-71
2022/08/17 12:42:36;;;;;;;2.85;2.65;;;24.40;62.70;;;;;;5076607;28;20219;-72
2022/08/17 12:45:30;;;;;;;2.95;2.75;;;24.40;62.70;;;;;;5090816;28;20211;-72
2022/08/17 12:48:08;;;;;;;2.42;2.33;;;24.40;62.60;;;;;;5091458;28;20262;-71
2022/08/17 12:50:38;;;;;;;2.50;2.40;;;24.40;62.60;;;;;;5091251;28;20192;-70
2022/08/17 12:53:15;;;;;;;2.80;2.60;;;24.40;62.70;;;;;;5074339;28;20189;-72
2022/08/17 12:55:43;;;;;;;2.80;2.60;;;24.40;62.70;;;;;;5075931;28;20176;-71
2022/08/17 12:58:21;;;;;;;2.78;2.58;;;24.40;62.70;;;;;;5094587;28;20257;-71
2022/08/17 13:01:03;;;;;;;2.65;2.47;;;24.40;62.70;;;;;;5094442;28;20222;-72
2022/08/17 13:03:39;;;;;;;2.95;2.75;;;24.40;62.70;;;;;;5094716;28;20180;-70
2022/08/17 13:06:11;;;;;;;2.90;2.70;;;24.40;62.70;;;;;;5110761;28;20229;-71
2022/08/17 13:08:46;;;;;;;3.00;2.80;;;24.40;62.60;;;;;;5094415;28;20212;-71
2022/08/17 13:11:19;;;;;;;2.50;2.40;;;24.40;62.70;;;;;;5093825;28;20246;-71
2022/08/17 13:13:53;;;;;;;2.40;2.30;;;24.40;62.70;;;;;;5112284;28;20240;-71
2022/08/17 13:16:32;;;;;;;2.45;2.35;;;24.40;62.60;;;;;;5091030;28;20188;-71
2022/08/17 13:19:14;;;;;;;2.90;2.70;;;24.40;62.60;;;;;;5074091;28;20683;-71
2022/08/17 13:21:52;;;;;;;2.80;2.60;;;24.40;62.50;;;;;;5074367;28;20703;-71
2022/08/17 13:24:25;;;;;;;2.80;2.60;;;24.40;62.50;;;;;;5092136;28;20199;-71
2022/08/17 13:27:00;;;;;;;2.60;2.50;;;24.40;62.50;;;;;;5091482;28;20263;-71
2022/08/17 13:29:48;;;;;;;3.13;2.92;;;24.40;62.50;;;;;;5073893;28;20196;-71
2022/08/17 13:32:41;;;;;;;2.90;2.70;;;24.40;62.40;;;;;;5057315;28;20193;-71
2022/08/17 13:35:32;;;;;;;2.90;2.70;;;24.40;62.40;;;;;;5080439;28;20243;-71
2022/08/17 13:38:32;;;;;;;2.65;2.53;;;24.40;62.50;;;;;;5076152;28;20223;-71
2022/08/17 13:40:58;;;;;;;2.97;2.78;;;24.40;62.60;;;;;;5091677;28;20226;-71
2022/08/17 13:43:44;;;;;;;2.90;2.70;;;24.40;62.50;;;;;;5073745;28;20275;-71
2022/08/17 13:46:20;;;;;;;2.70;2.50;;;24.40;62.50;;;;;;5073124;28;20189;-71
2022/08/17 13:49:10;;;;;;;3.05;2.72;;;24.40;62.40;;;;;;5091887;28;20224;-71
2022/08/17 13:51:45;;;;;;;3.30;3.10;;;24.40;62.50;;;;;;5073842;28;20196;-71
2022/08/17 13:54:31;;;;;;;2.67;2.53;;;24.40;62.50;;;;;;5073699;28;20216;-71
2022/08/17 13:57:02;;;;;;;3.10;2.90;;;24.40;62.50;;;;;;5068891;28;20183;-71
2022/08/17 13:59:53;;;;;;;3.10;2.90;;;24.40;62.40;;;;;;5093830;28;20239;-71
2022/08/17 14:02:20;;;;;;;3.05;2.85;;;24.40;62.30;;;;;;5093438;28;20216;-71
2022/08/17 14:04:47;;;;;;;3.03;2.75;;;24.40;62.50;;;;;;5110270;28;20184;-72
2022/08/17 14:07:14;;;;;;;2.50;2.40;;;24.40;62.40;;;;;;5093635;28;20187;-71
2022/08/17 14:09:52;;;;;;;3.05;2.85;;;24.40;62.40;;;;;;5077013;28;20192;-70